sensor_id;sensor_type;location;lat;lon;timestamp;P1;durP1;ratioP1;P2;durP2;ratioP2
16294;SDS011;8255;49.560;8.244;2023-05-15T00:01:46;3.10;;;2.90;;
16294;SDS011;8255;49.560;8.244;2023-05-15T00:04:13;2.95;;;2.85;;
16294;SDS011;8255;49.560;8.244;2023-05-15T00:06:39;3.20;;;2.90;;
16294;SDS011;8255;49.560;8.244;2023-05-15T00:09:05;3.13;;;3.00;;
16294;SDS011;8255;49.560;8.244;2023-05-15T00:11:32;3.38;;;3.10;;
16294;SDS011;8255;49.560;8.244;2023-05-15T00:13:59;3.42;;;3.00;;
16294;SDS011;8255;49.560;8.244;2023-05-15T00:16:27;3.35;;;3.15;;
16294;SDS011;8255;49.560;8.244;2023-05-15T00:18:53;3.40;;;3.10;;
16294;SDS011;8255;49.560;8.244;2023-05-15T00:21:19;3.03;;;2.83;;
16294;SDS011;8255;49.560;8.244;2023-05-15T00:23:46;3.60;;;3.40;;
16294;SDS011;8255;49.560;8.244;2023-05-15T00:26:12;3.10;;;2.80;;
16294;SDS011;8255;49.560;8.244;2023-05-15T00:28:39;3.33;;;3.10;;
16294;SDS011;8255;49.560;8.244;2023-05-15T00:31:06;2.97;;;2.80;;
16294;SDS011;8255;49.560;8.244;2023-05-15T00:33:34;3.20;;;3.00;;
16294;SDS011;8255;49.560;8.244;2023-05-15T00:36:01;3.55;;;3.30;;
16294;SDS011;8255;49.560;8.244;2023-05-15T00:38:28;3.20;;;3.00;;
16294;SDS011;8255;49.560;8.244;2023-05-15T00:40:54;3.63;;;3.40;;
16294;SDS011;8255;49.560;8.244;2023-05-15T00:43:21;3.40;;;3.17;;
16294;SDS011;8255;49.560;8.244;2023-05-15T00:45:48;3.85;;;3.28;;
16294;SDS011;8255;49.560;8.244;2023-05-15T00:48:15;3.25;;;3.08;;
16294;SDS011;8255;49.560;8.244;2023-05-15T00:50:43;3.08;;;2.88;;
16294;SDS011;8255;49.560;8.244;2023-05-15T00:53:09;3.15;;;2.95;;
16294;SDS011;8255;49.560;8.244;2023-05-15T00:55:36;3.78;;;3.13;;
16294;SDS011;8255;49.560;8.244;2023-05-15T00:58:02;3.30;;;3.10;;
16294;SDS011;8255;49.560;8.244;2023-05-15T01:00:30;3.88;;;3.10;;
16294;SDS011;8255;49.560;8.244;2023-05-15T01:02:57;3.25;;;2.97;;
16294;SDS011;8255;49.560;8.244;2023-05-15T01:05:25;3.40;;;3.15;;
16294;SDS011;8255;49.560;8.244;2023-05-15T01:07:55;3.65;;;3.45;;
16294;SDS011;8255;49.560;8.244;2023-05-15T01:10:22;3.13;;;2.85;;
16294;SDS011;8255;49.560;8.244;2023-05-15T01:12:50;3.58;;;3.20;;
16294;SDS011;8255;49.560;8.244;2023-05-15T01:15:18;3.17;;;3.08;;
16294;SDS011;8255;49.560;8.244;2023-05-15T01:17:44;3.17;;;3.08;;
16294;SDS011;8255;49.560;8.244;2023-05-15T01:20:11;3.38;;;3.05;;
16294;SDS011;8255;49.560;8.244;2023-05-15T01:22:43;3.78;;;3.38;;
16294;SDS011;8255;49.560;8.244;2023-05-15T01:28:00;4.38;;;3.40;;
16294;SDS011;8255;49.560;8.244;2023-05-15T01:30:29;3.72;;;3.00;;
16294;SDS011;8255;49.560;8.244;2023-05-15T01:32:57;3.10;;;2.90;;
16294;SDS011;8255;49.560;8.244;2023-05-15T01:35:30;3.35;;;2.88;;
16294;SDS011;8255;49.560;8.244;2023-05-15T01:38:01;2.97;;;2.88;;
16294;SDS011;8255;49.560;8.244;2023-05-15T01:40:28;4.32;;;2.90;;
16294;SDS011;8255;49.560;8.244;2023-05-15T01:42:55;3.30;;;3.20;;
16294;SDS011;8255;49.560;8.244;2023-05-15T01:45:24;3.25;;;3.13;;
16294;SDS011;8255;49.560;8.244;2023-05-15T01:47:53;3.30;;;3.10;;
16294;SDS011;8255;49.560;8.244;2023-05-15T01:50:21;2.97;;;2.85;;
16294;SDS011;8255;49.560;8.244;2023-05-15T01:52:48;3.45;;;3.25;;
16294;SDS011;8255;49.560;8.244;2023-05-15T01:55:15;3.05;;;2.92;;
16294;SDS011;8255;49.560;8.244;2023-05-15T01:57:42;3.10;;;2.90;;
16294;SDS011;8255;49.560;8.244;2023-05-15T02:00:11;3.30;;;3.10;;
16294;SDS011;8255;49.560;8.244;2023-05-15T02:02:43;3.50;;;3.30;;
16294;SDS011;8255;49.560;8.244;2023-05-15T02:05:09;3.25;;;3.13;;
16294;SDS011;8255;49.560;8.244;2023-05-15T02:07:37;2.95;;;2.80;;
16294;SDS011;8255;49.560;8.244;2023-05-15T02:10:04;3.25;;;3.10;;
16294;SDS011;8255;49.560;8.244;2023-05-15T02:12:31;3.25;;;3.03;;
16294;SDS011;8255;49.560;8.244;2023-05-15T02:14:58;3.78;;;3.33;;
16294;SDS011;8255;49.560;8.244;2023-05-15T02:17:27;3.50;;;3.30;;
16294;SDS011;8255;49.560;8.244;2023-05-15T02:19:55;3.53;;;3.33;;
16294;SDS011;8255;49.560;8.244;2023-05-15T02:22:21;3.40;;;3.20;;
16294;SDS011;8255;49.560;8.244;2023-05-15T02:24:48;3.55;;;3.25;;
16294;SDS011;8255;49.560;8.244;2023-05-15T02:27:16;3.70;;;3.40;;
16294;SDS011;8255;49.560;8.244;2023-05-15T02:29:48;3.33;;;3.03;;
16294;SDS011;8255;49.560;8.244;2023-05-15T02:32:18;3.60;;;3.40;;
16294;SDS011;8255;49.560;8.244;2023-05-15T02:34:48;3.25;;;3.10;;
16294;SDS011;8255;49.560;8.244;2023-05-15T02:37:20;3.45;;;3.15;;
16294;SDS011;8255;49.560;8.244;2023-05-15T02:39:49;3.80;;;3.40;;
16294;SDS011;8255;49.560;8.244;2023-05-15T02:42:18;4.45;;;3.53;;
16294;SDS011;8255;49.560;8.244;2023-05-15T02:44:45;3.60;;;3.30;;
16294;SDS011;8255;49.560;8.244;2023-05-15T02:47:12;3.45;;;3.15;;
16294;SDS011;8255;49.560;8.244;2023-05-15T02:49:39;3.13;;;2.92;;
16294;SDS011;8255;49.560;8.244;2023-05-15T02:52:05;3.40;;;3.20;;
16294;SDS011;8255;49.560;8.244;2023-05-15T02:54:33;3.63;;;3.33;;
16294;SDS011;8255;49.560;8.244;2023-05-15T02:57:00;3.17;;;2.92;;
16294;SDS011;8255;49.560;8.244;2023-05-15T02:59:26;4.10;;;3.30;;
16294;SDS011;8255;49.560;8.244;2023-05-15T03:01:53;3.40;;;3.20;;
16294;SDS011;8255;49.560;8.244;2023-05-15T03:04:19;3.38;;;3.17;;
16294;SDS011;8255;49.560;8.244;2023-05-15T03:06:46;3.78;;;3.47;;
16294;SDS011;8255;49.560;8.244;2023-05-15T03:09:12;4.40;;;4.10;;
16294;SDS011;8255;49.560;8.244;2023-05-15T03:11:40;6.88;;;6.20;;
16294;SDS011;8255;49.560;8.244;2023-05-15T03:14:06;9.75;;;7.57;;
16294;SDS011;8255;49.560;8.244;2023-05-15T03:16:33;6.93;;;6.03;;
16294;SDS011;8255;49.560;8.244;2023-05-15T03:19:01;4.88;;;4.55;;
16294;SDS011;8255;49.560;8.244;2023-05-15T03:21:28;4.18;;;3.97;;
16294;SDS011;8255;49.560;8.244;2023-05-15T03:23:54;4.13;;;3.83;;
16294;SDS011;8255;49.560;8.244;2023-05-15T03:26:20;4.32;;;3.92;;
16294;SDS011;8255;49.560;8.244;2023-05-15T03:28:48;4.93;;;4.15;;
16294;SDS011;8255;49.560;8.244;2023-05-15T03:31:15;5.18;;;4.78;;
16294;SDS011;8255;49.560;8.244;2023-05-15T03:33:41;4.38;;;3.72;;
16294;SDS011;8255;49.560;8.244;2023-05-15T03:36:09;4.63;;;4.25;;
16294;SDS011;8255;49.560;8.244;2023-05-15T03:38:36;4.10;;;3.83;;
16294;SDS011;8255;49.560;8.244;2023-05-15T03:41:02;3.85;;;3.55;;
16294;SDS011;8255;49.560;8.244;2023-05-15T03:43:30;3.95;;;3.58;;
16294;SDS011;8255;49.560;8.244;2023-05-15T03:45:58;3.63;;;3.42;;
16294;SDS011;8255;49.560;8.244;2023-05-15T03:48:25;4.10;;;3.70;;
16294;SDS011;8255;49.560;8.244;2023-05-15T03:50:51;3.90;;;3.70;;
16294;SDS011;8255;49.560;8.244;2023-05-15T03:53:18;3.75;;;3.53;;
16294;SDS011;8255;49.560;8.244;2023-05-15T03:55:44;5.22;;;4.05;;
16294;SDS011;8255;49.560;8.244;2023-05-15T03:58:10;4.00;;;3.70;;
16294;SDS011;8255;49.560;8.244;2023-05-15T04:00:37;4.38;;;4.00;;
16294;SDS011;8255;49.560;8.244;2023-05-15T04:03:04;4.47;;;4.07;;
16294;SDS011;8255;49.560;8.244;2023-05-15T04:05:31;4.28;;;3.90;;
16294;SDS011;8255;49.560;8.244;2023-05-15T04:07:57;4.15;;;3.85;;
16294;SDS011;8255;49.560;8.244;2023-05-15T04:10:23;4.07;;;3.80;;
16294;SDS011;8255;49.560;8.244;2023-05-15T04:12:50;9.38;;;8.50;;
16294;SDS011;8255;49.560;8.244;2023-05-15T04:15:17;6.07;;;5.50;;
16294;SDS011;8255;49.560;8.244;2023-05-15T04:17:44;9.55;;;8.07;;
16294;SDS011;8255;49.560;8.244;2023-05-15T04:20:14;4.47;;;3.95;;
16294;SDS011;8255;49.560;8.244;2023-05-15T04:22:41;3.70;;;3.50;;
16294;SDS011;8255;49.560;8.244;2023-05-15T04:25:08;3.30;;;3.08;;
16294;SDS011;8255;49.560;8.244;2023-05-15T04:27:35;3.70;;;3.50;;
16294;SDS011;8255;49.560;8.244;2023-05-15T04:30:01;3.53;;;3.33;;
16294;SDS011;8255;49.560;8.244;2023-05-15T04:32:28;3.40;;;3.20;;
16294;SDS011;8255;49.560;8.244;2023-05-15T04:34:55;3.75;;;3.45;;
16294;SDS011;8255;49.560;8.244;2023-05-15T04:37:22;3.53;;;3.22;;
16294;SDS011;8255;49.560;8.244;2023-05-15T04:39:49;3.70;;;3.40;;
16294;SDS011;8255;49.560;8.244;2023-05-15T04:42:15;3.30;;;3.10;;
16294;SDS011;8255;49.560;8.244;2023-05-15T04:44:41;3.42;;;3.22;;
16294;SDS011;8255;49.560;8.244;2023-05-15T04:47:08;3.53;;;3.33;;
16294;SDS011;8255;49.560;8.244;2023-05-15T04:49:35;3.65;;;3.30;;
16294;SDS011;8255;49.560;8.244;2023-05-15T04:52:01;3.50;;;3.20;;
16294;SDS011;8255;49.560;8.244;2023-05-15T04:54:30;3.65;;;3.45;;
16294;SDS011;8255;49.560;8.244;2023-05-15T04:56:56;3.17;;;2.97;;
16294;SDS011;8255;49.560;8.244;2023-05-15T04:59:23;4.00;;;3.20;;
16294;SDS011;8255;49.560;8.244;2023-05-15T05:01:49;3.58;;;3.38;;
16294;SDS011;8255;49.560;8.244;2023-05-15T05:04:16;2.85;;;2.70;;
16294;SDS011;8255;49.560;8.244;2023-05-15T05:06:43;3.25;;;3.08;;
16294;SDS011;8255;49.560;8.244;2023-05-15T05:09:10;3.25;;;3.10;;
16294;SDS011;8255;49.560;8.244;2023-05-15T05:11:38;2.88;;;2.75;;
16294;SDS011;8255;49.560;8.244;2023-05-15T05:14:07;3.10;;;3.00;;
16294;SDS011;8255;49.560;8.244;2023-05-15T05:16:34;2.97;;;2.78;;
16294;SDS011;8255;49.560;8.244;2023-05-15T05:19:00;2.65;;;2.55;;
16294;SDS011;8255;49.560;8.244;2023-05-15T05:21:27;3.20;;;3.00;;
16294;SDS011;8255;49.560;8.244;2023-05-15T05:23:53;2.83;;;2.72;;
16294;SDS011;8255;49.560;8.244;2023-05-15T05:26:20;3.15;;;2.95;;
16294;SDS011;8255;49.560;8.244;2023-05-15T05:28:47;3.08;;;2.88;;
16294;SDS011;8255;49.560;8.244;2023-05-15T05:31:14;3.15;;;2.85;;
16294;SDS011;8255;49.560;8.244;2023-05-15T05:33:40;3.10;;;2.97;;
16294;SDS011;8255;49.560;8.244;2023-05-15T05:36:07;3.20;;;3.10;;
16294;SDS011;8255;49.560;8.244;2023-05-15T05:38:34;2.83;;;2.70;;
16294;SDS011;8255;49.560;8.244;2023-05-15T05:41:00;3.13;;;2.92;;
16294;SDS011;8255;49.560;8.244;2023-05-15T05:43:27;2.78;;;2.67;;
16294;SDS011;8255;49.560;8.244;2023-05-15T05:45:55;3.30;;;3.00;;
16294;SDS011;8255;49.560;8.244;2023-05-15T05:48:21;3.10;;;2.83;;
16294;SDS011;8255;49.560;8.244;2023-05-15T05:50:47;2.90;;;2.80;;
16294;SDS011;8255;49.560;8.244;2023-05-15T05:53:14;2.78;;;2.67;;
16294;SDS011;8255;49.560;8.244;2023-05-15T05:55:40;4.13;;;2.50;;
16294;SDS011;8255;49.560;8.244;2023-05-15T05:58:06;3.00;;;2.85;;
16294;SDS011;8255;49.560;8.244;2023-05-15T06:00:33;3.17;;;2.85;;
16294;SDS011;8255;49.560;8.244;2023-05-15T06:03:01;3.40;;;3.10;;
16294;SDS011;8255;49.560;8.244;2023-05-15T06:05:27;3.63;;;3.33;;
16294;SDS011;8255;49.560;8.244;2023-05-15T06:07:53;3.58;;;3.38;;
16294;SDS011;8255;49.560;8.244;2023-05-15T06:10:20;3.42;;;3.20;;
16294;SDS011;8255;49.560;8.244;2023-05-15T06:12:47;4.03;;;3.53;;
16294;SDS011;8255;49.560;8.244;2023-05-15T06:15:14;3.38;;;3.10;;
16294;SDS011;8255;49.560;8.244;2023-05-15T06:17:41;3.50;;;3.30;;
16294;SDS011;8255;49.560;8.244;2023-05-15T06:20:09;3.72;;;3.45;;
16294;SDS011;8255;49.560;8.244;2023-05-15T06:22:36;4.60;;;3.63;;
16294;SDS011;8255;49.560;8.244;2023-05-15T06:25:03;3.75;;;3.55;;
16294;SDS011;8255;49.560;8.244;2023-05-15T06:27:29;4.10;;;3.80;;
16294;SDS011;8255;49.560;8.244;2023-05-15T06:29:55;4.40;;;4.00;;
16294;SDS011;8255;49.560;8.244;2023-05-15T06:32:22;4.13;;;3.90;;
16294;SDS011;8255;49.560;8.244;2023-05-15T06:34:48;4.65;;;4.35;;
16294;SDS011;8255;49.560;8.244;2023-05-15T06:37:16;4.88;;;4.47;;
16294;SDS011;8255;49.560;8.244;2023-05-15T06:39:42;4.50;;;4.10;;
16294;SDS011;8255;49.560;8.244;2023-05-15T06:42:09;4.95;;;4.55;;
16294;SDS011;8255;49.560;8.244;2023-05-15T06:44:36;4.57;;;4.20;;
16294;SDS011;8255;49.560;8.244;2023-05-15T06:47:02;5.22;;;4.82;;
16294;SDS011;8255;49.560;8.244;2023-05-15T06:49:28;4.72;;;4.35;;
16294;SDS011;8255;49.560;8.244;2023-05-15T06:51:55;5.53;;;5.10;;
16294;SDS011;8255;49.560;8.244;2023-05-15T06:54:23;6.70;;;6.15;;
16294;SDS011;8255;49.560;8.244;2023-05-15T06:56:49;7.70;;;6.82;;
16294;SDS011;8255;49.560;8.244;2023-05-15T06:59:15;6.65;;;6.00;;
16294;SDS011;8255;49.560;8.244;2023-05-15T07:01:42;8.50;;;6.30;;
16294;SDS011;8255;49.560;8.244;2023-05-15T07:04:08;7.35;;;5.93;;
16294;SDS011;8255;49.560;8.244;2023-05-15T07:06:35;6.43;;;5.90;;
16294;SDS011;8255;49.560;8.244;2023-05-15T07:09:02;6.47;;;5.82;;
16294;SDS011;8255;49.560;8.244;2023-05-15T07:11:30;6.30;;;5.90;;
16294;SDS011;8255;49.560;8.244;2023-05-15T07:13:57;5.55;;;5.05;;
16294;SDS011;8255;49.560;8.244;2023-05-15T07:16:24;5.40;;;5.00;;
16294;SDS011;8255;49.560;8.244;2023-05-15T07:18:50;5.32;;;4.95;;
16294;SDS011;8255;49.560;8.244;2023-05-15T07:21:16;5.72;;;5.30;;
16294;SDS011;8255;49.560;8.244;2023-05-15T07:23:43;6.10;;;5.03;;
16294;SDS011;8255;49.560;8.244;2023-05-15T07:26:09;6.25;;;5.65;;
16294;SDS011;8255;49.560;8.244;2023-05-15T07:28:37;6.38;;;5.93;;
16294;SDS011;8255;49.560;8.244;2023-05-15T07:31:03;8.75;;;5.88;;
16294;SDS011;8255;49.560;8.244;2023-05-15T07:33:30;7.43;;;6.72;;
16294;SDS011;8255;49.560;8.244;2023-05-15T07:35:56;7.68;;;6.85;;
16294;SDS011;8255;49.560;8.244;2023-05-15T07:38:22;7.78;;;7.07;;
16294;SDS011;8255;49.560;8.244;2023-05-15T07:40:49;8.98;;;8.07;;
16294;SDS011;8255;49.560;8.244;2023-05-15T07:43:15;9.40;;;8.45;;
16294;SDS011;8255;49.560;8.244;2023-05-15T07:45:43;9.00;;;8.13;;
16294;SDS011;8255;49.560;8.244;2023-05-15T07:48:13;9.40;;;8.40;;
16294;SDS011;8255;49.560;8.244;2023-05-15T07:50:39;9.90;;;8.95;;
16294;SDS011;8255;49.560;8.244;2023-05-15T07:53:06;10.00;;;9.05;;
16294;SDS011;8255;49.560;8.244;2023-05-15T07:55:32;11.40;;;9.32;;
16294;SDS011;8255;49.560;8.244;2023-05-15T07:57:59;11.02;;;9.93;;
16294;SDS011;8255;49.560;8.244;2023-05-15T08:00:25;11.57;;;10.02;;
16294;SDS011;8255;49.560;8.244;2023-05-15T08:02:53;13.65;;;10.45;;
16294;SDS011;8255;49.560;8.244;2023-05-15T08:05:19;11.43;;;9.95;;
16294;SDS011;8255;49.560;8.244;2023-05-15T08:07:46;11.65;;;10.35;;
16294;SDS011;8255;49.560;8.244;2023-05-15T08:10:12;13.43;;;10.07;;
16294;SDS011;8255;49.560;8.244;2023-05-15T08:12:38;11.82;;;10.70;;
16294;SDS011;8255;49.560;8.244;2023-05-15T08:15:10;13.88;;;10.10;;
16294;SDS011;8255;49.560;8.244;2023-05-15T08:17:36;11.68;;;10.27;;
16294;SDS011;8255;49.560;8.244;2023-05-15T08:20:05;11.20;;;10.05;;
16294;SDS011;8255;49.560;8.244;2023-05-15T08:22:31;10.80;;;9.82;;
16294;SDS011;8255;49.560;8.244;2023-05-15T08:24:58;13.25;;;11.23;;
16294;SDS011;8255;49.560;8.244;2023-05-15T08:27:25;11.52;;;10.32;;
16294;SDS011;8255;49.560;8.244;2023-05-15T08:29:51;12.10;;;10.63;;
16294;SDS011;8255;49.560;8.244;2023-05-15T08:32:18;11.68;;;10.48;;
16294;SDS011;8255;49.560;8.244;2023-05-15T08:34:45;11.93;;;10.02;;
16294;SDS011;8255;49.560;8.244;2023-05-15T08:37:13;11.50;;;10.40;;
16294;SDS011;8255;49.560;8.244;2023-05-15T08:39:39;13.10;;;11.55;;
16294;SDS011;8255;49.560;8.244;2023-05-15T08:42:07;14.13;;;12.65;;
16294;SDS011;8255;49.560;8.244;2023-05-15T08:44:36;14.73;;;13.13;;
16294;SDS011;8255;49.560;8.244;2023-05-15T08:47:03;15.57;;;12.95;;
16294;SDS011;8255;49.560;8.244;2023-05-15T08:49:32;14.77;;;13.23;;
16294;SDS011;8255;49.560;8.244;2023-05-15T08:52:01;14.80;;;13.27;;
16294;SDS011;8255;49.560;8.244;2023-05-15T08:54:29;13.38;;;12.13;;
16294;SDS011;8255;49.560;8.244;2023-05-15T08:56:55;14.90;;;12.63;;
16294;SDS011;8255;49.560;8.244;2023-05-15T08:59:22;14.32;;;12.82;;
16294;SDS011;8255;49.560;8.244;2023-05-15T09:01:49;15.68;;;13.82;;
16294;SDS011;8255;49.560;8.244;2023-05-15T09:04:15;16.13;;;13.38;;
16294;SDS011;8255;49.560;8.244;2023-05-15T09:06:42;14.27;;;12.77;;
16294;SDS011;8255;49.560;8.244;2023-05-15T09:09:09;13.60;;;12.20;;
16294;SDS011;8255;49.560;8.244;2023-05-15T09:11:39;19.25;;;14.23;;
16294;SDS011;8255;49.560;8.244;2023-05-15T09:14:08;15.68;;;13.93;;
16294;SDS011;8255;49.560;8.244;2023-05-15T09:16:35;15.63;;;13.20;;
16294;SDS011;8255;49.560;8.244;2023-05-15T09:19:01;14.77;;;12.50;;
16294;SDS011;8255;49.560;8.244;2023-05-15T09:21:28;13.73;;;12.32;;
16294;SDS011;8255;49.560;8.244;2023-05-15T09:24:14;12.35;;;11.15;;
16294;SDS011;8255;49.560;8.244;2023-05-15T09:26:42;12.98;;;11.68;;
16294;SDS011;8255;49.560;8.244;2023-05-15T09:29:09;14.82;;;13.30;;
16294;SDS011;8255;49.560;8.244;2023-05-15T09:31:35;16.38;;;13.90;;
16294;SDS011;8255;49.560;8.244;2023-05-15T09:34:02;17.70;;;12.50;;
16294;SDS011;8255;49.560;8.244;2023-05-15T09:36:29;14.90;;;12.50;;
16294;SDS011;8255;49.560;8.244;2023-05-15T09:38:57;13.93;;;12.00;;
16294;SDS011;8255;49.560;8.244;2023-05-15T09:41:24;16.20;;;13.63;;
16294;SDS011;8255;49.560;8.244;2023-05-15T09:43:52;15.27;;;12.68;;
16294;SDS011;8255;49.560;8.244;2023-05-15T09:46:20;15.00;;;12.45;;
16294;SDS011;8255;49.560;8.244;2023-05-15T09:48:47;12.82;;;11.52;;
16294;SDS011;8255;49.560;8.244;2023-05-15T09:51:13;12.55;;;9.88;;
16294;SDS011;8255;49.560;8.244;2023-05-15T09:53:40;12.02;;;10.68;;
16294;SDS011;8255;49.560;8.244;2023-05-15T09:56:07;10.90;;;9.80;;
16294;SDS011;8255;49.560;8.244;2023-05-15T09:58:34;9.95;;;8.95;;
16294;SDS011;8255;49.560;8.244;2023-05-15T10:01:02;11.93;;;10.40;;
16294;SDS011;8255;49.560;8.244;2023-05-15T10:03:35;11.77;;;10.43;;
16294;SDS011;8255;49.560;8.244;2023-05-15T10:06:01;13.65;;;11.95;;
16294;SDS011;8255;49.560;8.244;2023-05-15T10:08:28;12.25;;;10.88;;
16294;SDS011;8255;49.560;8.244;2023-05-15T10:10:55;11.73;;;10.40;;
16294;SDS011;8255;49.560;8.244;2023-05-15T10:13:24;14.57;;;13.10;;
16294;SDS011;8255;49.560;8.244;2023-05-15T10:15:51;14.07;;;12.50;;
16294;SDS011;8255;49.560;8.244;2023-05-15T10:18:19;14.15;;;11.05;;
16294;SDS011;8255;49.560;8.244;2023-05-15T10:20:49;13.05;;;11.63;;
16294;SDS011;8255;49.560;8.244;2023-05-15T10:23:15;12.50;;;11.23;;
16294;SDS011;8255;49.560;8.244;2023-05-15T10:25:44;16.63;;;11.98;;
16294;SDS011;8255;49.560;8.244;2023-05-15T10:28:15;13.93;;;11.43;;
16294;SDS011;8255;49.560;8.244;2023-05-15T10:30:42;13.95;;;12.40;;
16294;SDS011;8255;49.560;8.244;2023-05-15T10:33:08;13.15;;;11.80;;
16294;SDS011;8255;49.560;8.244;2023-05-15T10:35:38;12.02;;;10.93;;
16294;SDS011;8255;49.560;8.244;2023-05-15T10:38:04;10.43;;;9.43;;
16294;SDS011;8255;49.560;8.244;2023-05-15T10:40:31;10.07;;;8.25;;
16294;SDS011;8255;49.560;8.244;2023-05-15T10:42:58;10.57;;;9.45;;
16294;SDS011;8255;49.560;8.244;2023-05-15T10:45:25;12.70;;;9.43;;
16294;SDS011;8255;49.560;8.244;2023-05-15T10:47:52;9.50;;;7.78;;
16294;SDS011;8255;49.560;8.244;2023-05-15T10:50:18;7.13;;;6.43;;
16294;SDS011;8255;49.560;8.244;2023-05-15T10:52:47;7.18;;;6.30;;
16294;SDS011;8255;49.560;8.244;2023-05-15T10:55:16;6.25;;;5.65;;
16294;SDS011;8255;49.560;8.244;2023-05-15T10:57:43;5.45;;;5.05;;
16294;SDS011;8255;49.560;8.244;2023-05-15T11:00:26;5.00;;;4.60;;
16294;SDS011;8255;49.560;8.244;2023-05-15T11:02:52;5.18;;;3.95;;
16294;SDS011;8255;49.560;8.244;2023-05-15T11:05:21;4.40;;;4.00;;
16294;SDS011;8255;49.560;8.244;2023-05-15T11:10:36;5.43;;;3.92;;
16294;SDS011;8255;49.560;8.244;2023-05-15T11:13:04;6.65;;;5.68;;
16294;SDS011;8255;49.560;8.244;2023-05-15T11:15:40;8.57;;;7.30;;
16294;SDS011;8255;49.560;8.244;2023-05-15T11:18:06;5.00;;;4.60;;
16294;SDS011;8255;49.560;8.244;2023-05-15T11:20:33;5.10;;;4.60;;
16294;SDS011;8255;49.560;8.244;2023-05-15T11:23:02;7.10;;;6.40;;
16294;SDS011;8255;49.560;8.244;2023-05-15T11:25:29;6.93;;;6.22;;
16294;SDS011;8255;49.560;8.244;2023-05-15T11:27:57;6.85;;;6.35;;
16294;SDS011;8255;49.560;8.244;2023-05-15T11:30:33;7.90;;;7.20;;
16294;SDS011;8255;49.560;8.244;2023-05-15T11:33:00;6.57;;;5.97;;
16294;SDS011;8255;49.560;8.244;2023-05-15T11:35:29;6.82;;;5.78;;
16294;SDS011;8255;49.560;8.244;2023-05-15T11:37:57;5.28;;;4.88;;
16294;SDS011;8255;49.560;8.244;2023-05-15T11:40:24;8.38;;;5.95;;
16294;SDS011;8255;49.560;8.244;2023-05-15T11:42:58;4.55;;;3.95;;
16294;SDS011;8255;49.560;8.244;2023-05-15T11:45:25;3.30;;;3.10;;
16294;SDS011;8255;49.560;8.244;2023-05-15T11:47:52;4.38;;;3.97;;
16294;SDS011;8255;49.560;8.244;2023-05-15T11:50:19;3.42;;;3.22;;
16294;SDS011;8255;49.560;8.244;2023-05-15T11:52:46;7.00;;;4.15;;
16294;SDS011;8255;49.560;8.244;2023-05-15T11:55:14;4.72;;;4.15;;
16294;SDS011;8255;49.560;8.244;2023-05-15T11:57:40;7.57;;;5.40;;
16294;SDS011;8255;49.560;8.244;2023-05-15T12:00:09;5.78;;;5.18;;
16294;SDS011;8255;49.560;8.244;2023-05-15T12:02:35;5.22;;;4.82;;
16294;SDS011;8255;49.560;8.244;2023-05-15T12:05:01;6.95;;;4.75;;
16294;SDS011;8255;49.560;8.244;2023-05-15T12:07:29;5.35;;;4.90;;
16294;SDS011;8255;49.560;8.244;2023-05-15T12:09:56;4.50;;;4.13;;
16294;SDS011;8255;49.560;8.244;2023-05-15T12:12:22;3.72;;;3.53;;
16294;SDS011;8255;49.560;8.244;2023-05-15T12:14:51;4.10;;;3.80;;
16294;SDS011;8255;49.560;8.244;2023-05-15T12:17:24;4.07;;;3.80;;
16294;SDS011;8255;49.560;8.244;2023-05-15T12:19:51;5.53;;;5.13;;
16294;SDS011;8255;49.560;8.244;2023-05-15T12:22:18;6.38;;;5.55;;
16294;SDS011;8255;49.560;8.244;2023-05-15T12:24:46;4.95;;;4.63;;
16294;SDS011;8255;49.560;8.244;2023-05-15T12:27:12;6.13;;;5.63;;
16294;SDS011;8255;49.560;8.244;2023-05-15T12:29:40;5.50;;;5.00;;
16294;SDS011;8255;49.560;8.244;2023-05-15T12:32:07;6.20;;;5.28;;
16294;SDS011;8255;49.560;8.244;2023-05-15T12:34:35;5.90;;;5.40;;
16294;SDS011;8255;49.560;8.244;2023-05-15T12:37:01;5.43;;;5.03;;
16294;SDS011;8255;49.560;8.244;2023-05-15T12:39:27;5.53;;;5.13;;
16294;SDS011;8255;49.560;8.244;2023-05-15T12:41:56;7.47;;;5.40;;
16294;SDS011;8255;49.560;8.244;2023-05-15T12:44:22;5.40;;;5.00;;
16294;SDS011;8255;49.560;8.244;2023-05-15T12:46:52;5.57;;;5.18;;
16294;SDS011;8255;49.560;8.244;2023-05-15T12:49:21;6.03;;;5.53;;
16294;SDS011;8255;49.560;8.244;2023-05-15T12:51:49;5.28;;;4.78;;
16294;SDS011;8255;49.560;8.244;2023-05-15T12:54:16;5.30;;;4.90;;
16294;SDS011;8255;49.560;8.244;2023-05-15T12:56:43;5.22;;;4.82;;
16294;SDS011;8255;49.560;8.244;2023-05-15T12:59:09;6.53;;;5.10;;
16294;SDS011;8255;49.560;8.244;2023-05-15T13:01:35;6.05;;;5.38;;
16294;SDS011;8255;49.560;8.244;2023-05-15T13:04:02;5.40;;;5.10;;
16294;SDS011;8255;49.560;8.244;2023-05-15T13:06:29;6.15;;;5.65;;
16294;SDS011;8255;49.560;8.244;2023-05-15T13:08:56;6.30;;;5.20;;
16294;SDS011;8255;49.560;8.244;2023-05-15T13:11:27;7.03;;;6.40;;
16294;SDS011;8255;49.560;8.244;2023-05-15T13:13:54;5.82;;;5.28;;
16294;SDS011;8255;49.560;8.244;2023-05-15T13:16:22;6.10;;;5.68;;
16294;SDS011;8255;49.560;8.244;2023-05-15T13:18:49;6.43;;;5.82;;
16294;SDS011;8255;49.560;8.244;2023-05-15T13:21:15;6.40;;;5.80;;
16294;SDS011;8255;49.560;8.244;2023-05-15T13:23:42;6.57;;;5.97;;
16294;SDS011;8255;49.560;8.244;2023-05-15T13:26:10;6.55;;;6.05;;
16294;SDS011;8255;49.560;8.244;2023-05-15T13:28:36;8.27;;;6.43;;
16294;SDS011;8255;49.560;8.244;2023-05-15T13:31:02;7.47;;;6.88;;
16294;SDS011;8255;49.560;8.244;2023-05-15T13:33:29;7.85;;;7.13;;
16294;SDS011;8255;49.560;8.244;2023-05-15T13:35:56;7.85;;;7.15;;
16294;SDS011;8255;49.560;8.244;2023-05-15T13:38:22;7.13;;;6.53;;
16294;SDS011;8255;49.560;8.244;2023-05-15T13:40:48;7.95;;;7.18;;
16294;SDS011;8255;49.560;8.244;2023-05-15T13:43:16;6.32;;;5.70;;
16294;SDS011;8255;49.560;8.244;2023-05-15T13:45:42;7.60;;;6.90;;
16294;SDS011;8255;49.560;8.244;2023-05-15T13:48:09;7.13;;;6.47;;
16294;SDS011;8255;49.560;8.244;2023-05-15T13:50:35;6.57;;;6.10;;
16294;SDS011;8255;49.560;8.244;2023-05-15T13:53:02;5.78;;;5.22;;
16294;SDS011;8255;49.560;8.244;2023-05-15T13:55:28;5.38;;;4.97;;
16294;SDS011;8255;49.560;8.244;2023-05-15T13:57:55;4.50;;;4.22;;
16294;SDS011;8255;49.560;8.244;2023-05-15T14:00:23;5.50;;;4.97;;
16294;SDS011;8255;49.560;8.244;2023-05-15T14:02:49;7.93;;;4.75;;
16294;SDS011;8255;49.560;8.244;2023-05-15T14:05:16;5.70;;;5.20;;
16294;SDS011;8255;49.560;8.244;2023-05-15T14:07:43;4.97;;;4.68;;
16294;SDS011;8255;49.560;8.244;2023-05-15T14:10:10;5.32;;;4.80;;
16294;SDS011;8255;49.560;8.244;2023-05-15T14:12:37;4.75;;;4.38;;
16294;SDS011;8255;49.560;8.244;2023-05-15T14:15:04;10.55;;;4.63;;
16294;SDS011;8255;49.560;8.244;2023-05-15T14:17:32;4.78;;;4.38;;
16294;SDS011;8255;49.560;8.244;2023-05-15T14:19:59;6.20;;;3.85;;
16294;SDS011;8255;49.560;8.244;2023-05-15T14:22:25;4.22;;;4.03;;
16294;SDS011;8255;49.560;8.244;2023-05-15T14:24:51;4.63;;;4.22;;
16294;SDS011;8255;49.560;8.244;2023-05-15T14:27:18;4.85;;;4.35;;
16294;SDS011;8255;49.560;8.244;2023-05-15T14:29:44;5.07;;;4.60;;
16294;SDS011;8255;49.560;8.244;2023-05-15T14:32:12;4.57;;;4.22;;
16294;SDS011;8255;49.560;8.244;2023-05-15T14:34:40;4.55;;;4.25;;
16294;SDS011;8255;49.560;8.244;2023-05-15T14:37:06;5.10;;;4.72;;
16294;SDS011;8255;49.560;8.244;2023-05-15T14:39:32;5.53;;;5.13;;
16294;SDS011;8255;49.560;8.244;2023-05-15T14:41:59;5.70;;;5.20;;
16294;SDS011;8255;49.560;8.244;2023-05-15T14:44:25;4.95;;;4.55;;
16294;SDS011;8255;49.560;8.244;2023-05-15T14:47:03;5.20;;;4.80;;
16294;SDS011;8255;49.560;8.244;2023-05-15T14:49:30;5.20;;;4.90;;
16294;SDS011;8255;49.560;8.244;2023-05-15T14:51:58;5.22;;;4.80;;
16294;SDS011;8255;49.560;8.244;2023-05-15T14:54:24;5.32;;;4.90;;
16294;SDS011;8255;49.560;8.244;2023-05-15T14:56:51;4.70;;;4.40;;
16294;SDS011;8255;49.560;8.244;2023-05-15T14:59:17;4.85;;;4.50;;
16294;SDS011;8255;49.560;8.244;2023-05-15T15:01:43;4.28;;;4.00;;